Time;durP1;ratioP1;P1;durP2;ratioP2;P2;SDS_P1;SDS_P2;PMS_P1;PMS_P2;Temp;Humidity;BMP_temperature;BMP_pressure;BME280_temperature;BME280_humidity;BME280_pressure;Samples;Min_cycle;Max_cycle;Signal;HPM_P1;HPM_P2
2024/02/26 00:01:52;;;;;;;2.15;1.00;;;6.10;99.90;;;;;;4965809;28;20133;-75
2024/02/26 00:04:19;;;;;;;1.83;0.93;;;6.10;99.90;;;;;;4956067;29;20043;-76
2024/02/26 00:06:46;;;;;;;2.80;1.00;;;6.10;99.90;;;;;;4958310;28;20041;-76
2024/02/26 00:09:13;;;;;;;1.85;1.10;;;6.00;99.90;;;;;;4956372;28;20038;-76
2024/02/26 00:11:40;;;;;;;2.72;1.25;;;6.00;99.90;;;;;;4944179;28;20047;-76
2024/02/26 00:14:08;;;;;;;2.78;1.38;;;6.00;99.90;;;;;;4942748;28;20071;-75
2024/02/26 00:16:35;;;;;;;3.72;1.50;;;6.00;99.90;;;;;;4955180;28;20488;-75
2024/02/26 00:19:02;;;;;;;3.35;1.50;;;6.00;99.90;;;;;;4963197;28;20046;-76
2024/02/26 00:21:29;;;;;;;3.20;1.63;;;6.00;99.90;;;;;;4964888;28;20088;-76
2024/02/26 00:23:56;;;;;;;3.72;1.63;;;6.00;99.90;;;;;;4959001;28;20051;-76
2024/02/26 00:26:23;;;;;;;2.13;1.30;;;6.00;99.90;;;;;;4928537;28;20466;-76
2024/02/26 00:28:50;;;;;;;2.83;1.58;;;5.90;99.90;;;;;;4983706;28;20046;-75
2024/02/26 00:31:17;;;;;;;3.45;1.88;;;6.00;99.90;;;;;;4959632;28;20395;-76
2024/02/26 00:33:44;;;;;;;2.15;1.33;;;5.90;99.90;;;;;;4966155;28;20047;-75
2024/02/26 00:36:11;;;;;;;3.03;1.50;;;5.90;99.90;;;;;;4924897;29;20047;-76
2024/02/26 00:38:40;;;;;;;2.85;1.45;;;5.90;99.90;;;;;;4957144;28;20491;-75
2024/02/26 00:41:07;;;;;;;2.58;1.40;;;5.90;99.90;;;;;;4927380;29;20083;-76
2024/02/26 00:43:34;;;;;;;2.25;1.10;;;5.80;99.90;;;;;;4954557;28;20163;-75
2024/02/26 00:46:02;;;;;;;2.08;1.23;;;5.80;99.90;;;;;;4956061;28;20474;-76
2024/02/26 00:48:29;;;;;;;3.03;1.35;;;5.90;99.90;;;;;;4952007;28;20050;-75
2024/02/26 00:50:56;;;;;;;2.67;1.55;;;5.90;99.90;;;;;;4963072;28;20047;-76
2024/02/26 00:53:24;;;;;;;3.28;1.83;;;5.90;99.90;;;;;;4955075;28;20085;-76
2024/02/26 00:55:51;;;;;;;3.30;1.90;;;5.90;99.90;;;;;;4956103;28;20042;-75
2024/02/26 00:58:18;;;;;;;3.47;1.60;;;5.90;99.90;;;;;;4929450;29;20048;-75
2024/02/26 01:00:45;;;;;;;3.45;2.22;;;6.00;99.90;;;;;;4944804;28;20113;-76
2024/02/26 01:03:12;;;;;;;4.07;2.03;;;6.00;99.90;;;;;;4934099;29;20415;-76
2024/02/26 01:05:39;;;;;;;2.55;1.58;;;6.10;99.90;;;;;;4910202;28;20059;-76
2024/02/26 01:08:07;;;;;;;4.10;2.15;;;6.10;99.90;;;;;;4929824;28;20055;-76
2024/02/26 01:10:34;;;;;;;3.30;1.67;;;6.10;99.90;;;;;;4939110;29;20047;-76
2024/02/26 01:13:01;;;;;;;2.45;1.55;;;6.20;99.90;;;;;;4924879;28;20051;-76
2024/02/26 01:15:28;;;;;;;2.00;1.00;;;6.20;99.90;;;;;;4962862;28;20040;-76
2024/02/26 01:17:55;;;;;;;2.28;1.08;;;6.30;99.90;;;;;;4908499;29;20530;-76
2024/02/26 01:20:22;;;;;;;2.53;1.25;;;6.30;99.90;;;;;;4933132;28;20448;-76
2024/02/26 01:22:49;;;;;;;3.42;1.30;;;6.30;99.90;;;;;;4929495;29;20043;-76
2024/02/26 01:25:16;;;;;;;2.88;1.50;;;6.30;99.90;;;;;;4917284;29;20106;-75
2024/02/26 01:27:44;;;;;;;2.03;1.00;;;6.40;99.90;;;;;;4924498;29;20051;-75
2024/02/26 01:30:11;;;;;;;3.30;1.33;;;6.40;99.90;;;;;;4939350;29;20492;-75
2024/02/26 01:32:38;;;;;;;1.98;0.80;;;6.40;99.90;;;;;;4948208;28;20051;-76
2024/02/26 01:35:11;;;;;;;2.45;1.15;;;6.40;99.90;;;;;;4968040;28;20057;-76
2024/02/26 01:37:38;;;;;;;;;;;6.40;99.90;;;;;;4986376;28;20042;-76
2024/02/26 01:40:06;;;;;;;2.30;1.10;;;6.40;99.90;;;;;;4958710;28;19930;-76
2024/02/26 01:42:34;;;;;;;2.13;1.35;;;6.40;99.90;;;;;;4975826;28;20042;-75
2024/02/26 01:45:01;;;;;;;2.63;1.20;;;6.40;99.90;;;;;;4949774;28;20407;-75
2024/02/26 01:47:28;;;;;;;1.73;1.05;;;6.40;99.90;;;;;;4949685;28;20046;-75
2024/02/26 01:49:56;;;;;;;5.15;1.52;;;6.40;99.90;;;;;;4946513;29;20078;-76
2024/02/26 01:52:23;;;;;;;3.08;1.20;;;6.40;99.90;;;;;;4937719;28;20499;-76
2024/02/26 01:54:50;;;;;;;1.85;0.98;;;6.40;99.90;;;;;;4958556;28;20097;-76
2024/02/26 01:57:18;;;;;;;1.83;0.90;;;6.40;99.90;;;;;;4938248;28;20042;-76
2024/02/26 01:59:45;;;;;;;1.33;0.63;;;6.40;99.90;;;;;;4958086;28;20131;-75
2024/02/26 02:02:15;;;;;;;2.15;1.08;;;6.40;99.90;;;;;;4960612;28;20050;-75
2024/02/26 02:04:42;;;;;;;2.35;0.95;;;6.40;99.90;;;;;;4986378;28;20073;-76
2024/02/26 02:07:09;;;;;;;2.15;1.15;;;6.40;99.90;;;;;;4973601;28;20054;-76
2024/02/26 02:09:36;;;;;;;2.22;0.93;;;6.40;99.90;;;;;;4930798;28;20118;-75
2024/02/26 02:12:04;;;;;;;2.38;1.00;;;6.40;99.90;;;;;;4950188;28;20038;-76
2024/02/26 02:14:31;;;;;;;3.88;1.58;;;6.40;99.90;;;;;;4957968;28;20066;-76
2024/02/26 02:16:58;;;;;;;2.50;1.33;;;6.40;99.90;;;;;;4947656;28;20066;-75
2024/02/26 02:19:25;;;;;;;2.85;1.35;;;6.40;99.90;;;;;;4933006;28;20078;-75
2024/02/26 02:21:52;;;;;;;3.45;1.52;;;6.30;99.90;;;;;;4947555;29;20079;-76
2024/02/26 02:24:19;;;;;;;3.53;1.45;;;6.30;99.90;;;;;;4952268;28;20050;-75
2024/02/26 02:26:46;;;;;;;4.00;2.00;;;6.30;99.90;;;;;;4957814;28;20058;-75
2024/02/26 02:29:14;;;;;;;3.05;1.58;;;6.30;99.90;;;;;;4957579;28;20046;-76
2024/02/26 02:31:41;;;;;;;2.78;1.60;;;6.30;99.90;;;;;;4974638;28;20058;-76
2024/02/26 02:34:09;;;;;;;2.53;1.40;;;6.20;99.90;;;;;;4981675;28;20051;-76
2024/02/26 02:36:49;;;;;;;3.35;1.40;;;6.20;99.90;;;;;;4959003;28;20055;-75
2024/02/26 02:39:16;;;;;;;3.42;1.90;;;6.20;99.90;;;;;;4953436;28;20054;-76
2024/02/26 02:41:43;;;;;;;3.28;1.98;;;6.20;99.90;;;;;;4930633;28;20407;-75
2024/02/26 02:44:10;;;;;;;3.45;1.95;;;6.20;99.90;;;;;;4941721;28;20047;-76
2024/02/26 02:46:37;;;;;;;3.17;1.65;;;6.20;99.90;;;;;;4941447;28;20050;-76
2024/02/26 02:49:04;;;;;;;3.47;2.03;;;6.20;99.90;;;;;;4942758;28;20163;-75
2024/02/26 02:51:31;;;;;;;2.67;1.58;;;6.20;99.90;;;;;;4940399;28;20054;-76
2024/02/26 02:53:58;;;;;;;3.42;1.92;;;6.10;99.90;;;;;;4948965;28;20046;-75
2024/02/26 02:56:25;;;;;;;2.83;1.35;;;6.20;99.90;;;;;;4941825;28;20610;-75
2024/02/26 02:58:52;;;;;;;3.95;1.80;;;6.20;99.90;;;;;;4968755;28;20062;-76
2024/02/26 03:01:19;;;;;;;2.78;1.48;;;6.20;99.90;;;;;;4962770;28;20087;-75
2024/02/26 03:03:46;;;;;;;3.95;2.08;;;6.20;99.90;;;;;;4935317;28;20751;-76
2024/02/26 03:06:13;;;;;;;2.55;1.50;;;6.20;99.90;;;;;;4928556;29;20090;-75
2024/02/26 03:08:41;;;;;;;2.80;1.65;;;6.20;99.90;;;;;;4935175;28;20057;-76
2024/02/26 03:11:13;;;;;;;3.58;1.90;;;6.20;99.90;;;;;;4950490;28;20043;-76
2024/02/26 03:13:41;;;;;;;3.60;2.17;;;6.20;99.90;;;;;;4956831;28;20043;-76
2024/02/26 03:16:08;;;;;;;4.68;2.17;;;6.20;99.90;;;;;;4965804;28;20042;-76
2024/02/26 03:18:35;;;;;;;3.15;1.70;;;6.20;99.90;;;;;;4983421;28;20093;-76
2024/02/26 03:21:03;;;;;;;5.07;1.80;;;6.20;99.90;;;;;;4945261;28;20055;-76
2024/02/26 03:23:31;;;;;;;3.50;1.67;;;6.20;99.90;;;;;;4956867;28;20057;-75
2024/02/26 03:25:58;;;;;;;4.55;2.00;;;6.20;99.90;;;;;;4941246;28;20046;-76
2024/02/26 03:28:25;;;;;;;2.85;1.38;;;6.20;99.90;;;;;;4974259;28;20117;-76
2024/02/26 03:30:52;;;;;;;2.20;1.40;;;6.30;99.90;;;;;;4927064;29;20047;-76
2024/02/26 03:33:19;;;;;;;5.32;1.55;;;6.30;99.90;;;;;;4935968;28;20517;-76
2024/02/26 03:35:46;;;;;;;2.58;1.35;;;6.30;99.90;;;;;;4972890;28;20031;-76
2024/02/26 03:38:13;;;;;;;3.33;1.33;;;6.30;99.90;;;;;;4940148;28;20042;-75
2024/02/26 03:40:40;;;;;;;2.58;1.33;;;6.30;99.90;;;;;;4926313;28;20043;-76
2024/02/26 03:43:07;;;;;;;3.10;1.23;;;6.30;99.90;;;;;;4985990;28;20553;-76
2024/02/26 03:45:34;;;;;;;2.75;1.20;;;6.30;99.90;;;;;;4933092;28;20059;-75
2024/02/26 03:48:01;;;;;;;2.63;1.42;;;6.30;99.90;;;;;;4926195;28;20418;-76
2024/02/26 03:50:28;;;;;;;2.65;1.48;;;6.30;99.90;;;;;;4937829;28;20398;-75
2024/02/26 03:52:57;;;;;;;4.35;2.13;;;6.30;99.90;;;;;;4940166;28;20051;-75
2024/02/26 03:55:27;;;;;;;3.20;1.75;;;6.30;99.90;;;;;;4943397;28;20046;-76
2024/02/26 03:57:54;;;;;;;3.05;2.20;;;6.30;99.90;;;;;;4934701;28;20511;-75
2024/02/26 04:00:21;;;;;;;4.57;1.75;;;6.40;99.90;;;;;;4967302;28;20045;-75
2024/02/26 04:02:49;;;;;;;3.60;1.70;;;6.40;99.90;;;;;;4956077;28;20056;-76
2024/02/26 04:05:18;;;;;;;3.28;1.90;;;6.40;99.90;;;;;;4950318;28;20051;-76
2024/02/26 04:07:45;;;;;;;3.35;1.67;;;6.30;99.90;;;;;;4953260;28;20098;-75
2024/02/26 04:10:12;;;;;;;3.47;2.10;;;6.30;99.90;;;;;;4958352;28;20058;-76
2024/02/26 04:12:41;;;;;;;3.00;1.80;;;6.30;99.90;;;;;;4934464;28;20047;-75
2024/02/26 04:15:09;;;;;;;3.03;1.70;;;6.20;99.90;;;;;;4965946;28;20043;-75
2024/02/26 04:17:37;;;;;;;3.53;1.83;;;6.20;99.90;;;;;;4973415;28;20043;-76
2024/02/26 04:20:08;;;;;;;4.70;2.70;;;6.20;99.90;;;;;;4956874;28;20047;-76
2024/02/26 04:22:35;;;;;;;3.92;2.40;;;6.20;99.90;;;;;;4944197;28;20050;-75
2024/02/26 04:25:02;;;;;;;4.07;2.20;;;6.10;99.90;;;;;;4946402;28;20051;-75
2024/02/26 04:27:30;;;;;;;4.22;2.63;;;6.10;99.90;;;;;;4944069;28;20109;-76
2024/02/26 04:29:56;;;;;;;3.85;2.28;;;6.10;99.90;;;;;;4929644;28;20082;-75
2024/02/26 04:32:23;;;;;;;3.15;1.60;;;6.10;99.90;;;;;;4955978;28;20043;-76
2024/02/26 04:34:51;;;;;;;4.82;2.70;;;6.00;99.90;;;;;;4946333;28;20129;-75
2024/02/26 04:37:18;;;;;;;4.53;2.50;;;6.00;99.90;;;;;;4950625;28;20050;-76
2024/02/26 04:39:45;;;;;;;5.88;3.08;;;6.00;99.90;;;;;;4956395;28;20454;-76
2024/02/26 04:42:16;;;;;;;5.50;2.92;;;6.00;99.90;;;;;;4952482;28;20039;-75
2024/02/26 04:44:43;;;;;;;4.93;2.67;;;6.00;99.90;;;;;;4928030;28;20070;-75
2024/02/26 04:47:11;;;;;;;3.67;2.42;;;6.00;99.90;;;;;;4966389;28;20494;-75
2024/02/26 04:49:37;;;;;;;3.72;2.20;;;6.00;99.90;;;;;;4948091;28;20050;-75
2024/02/26 04:52:05;;;;;;;3.53;2.33;;;6.00;99.90;;;;;;4943139;28;20046;-76
2024/02/26 04:54:32;;;;;;;4.43;2.72;;;6.00;99.90;;;;;;4968407;28;20081;-76
2024/02/26 04:56:59;;;;;;;4.63;2.35;;;5.90;99.90;;;;;;4954686;28;20043;-76
2024/02/26 04:59:26;;;;;;;4.40;2.88;;;5.90;99.90;;;;;;4966593;28;20054;-75
2024/02/26 05:01:53;;;;;;;4.70;2.97;;;5.90;99.90;;;;;;4928712;28;20519;-75
2024/02/26 05:04:20;;;;;;;4.88;2.72;;;5.90;99.90;;;;;;4976572;28;20074;-75
2024/02/26 05:06:47;;;;;;;5.10;3.10;;;5.90;99.90;;;;;;4943903;28;20121;-76
2024/02/26 05:09:14;;;;;;;5.03;2.92;;;5.90;99.90;;;;;;4943994;28;20126;-76
2024/02/26 05:11:41;;;;;;;4.90;2.95;;;5.80;99.90;;;;;;4927850;28;20051;-76
2024/02/26 05:14:09;;;;;;;5.95;3.17;;;5.90;99.90;;;;;;4944004;28;20119;-75
2024/02/26 05:16:36;;;;;;;4.72;2.80;;;5.90;99.90;;;;;;4955048;28;20042;-76
2024/02/26 05:19:03;;;;;;;4.85;2.90;;;5.90;99.90;;;;;;4948165;28;20047;-75
2024/02/26 05:21:30;;;;;;;4.30;2.40;;;5.90;99.90;;;;;;4965608;28;20435;-75
2024/02/26 05:23:57;;;;;;;3.92;2.38;;;5.90;99.90;;;;;;4927744;28;20105;-75
2024/02/26 05:26:24;;;;;;;5.57;3.22;;;5.90;99.90;;;;;;4970631;28;20140;-75
2024/02/26 05:28:51;;;;;;;4.97;2.70;;;5.90;99.90;;;;;;4942861;28;20492;-75
2024/02/26 05:31:18;;;;;;;4.40;2.63;;;5.90;99.90;;;;;;4950017;29;20128;-76
2024/02/26 05:33:45;;;;;;;5.53;3.33;;;5.80;99.90;;;;;;4956054;28;20051;-76
2024/02/26 05:36:28;;;;;;;4.38;2.80;;;5.80;99.90;;;;;;4964367;28;20038;-76
2024/02/26 05:38:55;;;;;;;5.03;3.38;;;5.80;99.90;;;;;;4930216;28;20051;-76
2024/02/26 05:41:26;;;;;;;4.82;2.78;;;5.80;99.90;;;;;;4943289;28;20046;-76
2024/02/26 05:43:54;;;;;;;5.38;3.30;;;5.70;99.90;;;;;;4959814;28;20054;-76
2024/02/26 05:46:21;;;;;;;5.95;3.65;;;5.70;99.90;;;;;;4973192;28;20105;-76
2024/02/26 05:48:52;;;;;;;5.82;3.25;;;5.70;99.90;;;;;;4970100;28;20455;-76
2024/02/26 05:51:19;;;;;;;6.15;3.63;;;5.70;99.90;;;;;;4917751;28;20074;-76
2024/02/26 05:53:47;;;;;;;6.05;3.53;;;5.70;99.90;;;;;;4975862;28;20546;-76
2024/02/26 05:56:14;;;;;;;5.18;3.10;;;5.70;99.90;;;;;;4971835;28;20042;-76
2024/02/26 05:58:41;;;;;;;4.22;2.70;;;5.70;99.90;;;;;;4935052;28;20507;-76
2024/02/26 06:01:09;;;;;;;5.05;2.97;;;5.70;99.90;;;;;;4965082;28;20046;-76
2024/02/26 06:03:36;;;;;;;4.93;2.90;;;5.70;99.90;;;;;;4976953;28;20048;-77
2024/02/26 06:06:04;;;;;;;4.22;2.58;;;5.70;99.90;;;;;;4954093;28;20050;-76
2024/02/26 06:08:31;;;;;;;5.00;3.25;;;5.70;99.90;;;;;;4950203;28;20063;-76
2024/02/26 06:10:58;;;;;;;5.30;2.80;;;5.70;99.90;;;;;;4930400;29;20070;-76
2024/02/26 06:13:25;;;;;;;4.65;2.40;;;5.60;99.90;;;;;;4964287;28;20117;-76
2024/02/26 06:15:52;;;;;;;5.03;2.78;;;5.70;99.90;;;;;;4958640;28;21403;-76
2024/02/26 06:18:19;;;;;;;6.22;3.55;;;5.70;99.90;;;;;;4985436;28;20909;-76
2024/02/26 06:20:46;;;;;;;4.50;2.55;;;5.70;99.90;;;;;;4932110;28;20046;-76
2024/02/26 06:23:13;;;;;;;5.13;3.33;;;5.70;99.90;;;;;;4948623;28;20046;-81
2024/02/26 06:25:42;;;;;;;5.10;3.10;;;5.70;99.90;;;;;;4963221;28;20046;-81
2024/02/26 06:28:09;;;;;;;4.95;3.13;;;5.70;99.90;;;;;;4975634;28;20081;-81
2024/02/26 06:30:36;;;;;;;5.47;3.40;;;5.70;99.90;;;;;;4980108;28;20134;-82
2024/02/26 06:33:06;;;;;;;7.45;4.15;;;5.70;99.90;;;;;;4949800;29;20054;-82
2024/02/26 06:35:35;;;;;;;5.93;3.70;;;5.70;99.90;;;;;;4938208;29;20140;-82
2024/02/26 06:38:02;;;;;;;5.30;2.85;;;5.70;99.90;;;;;;4939196;29;20047;-76
2024/02/26 06:40:29;;;;;;;4.57;2.97;;;5.70;99.90;;;;;;4912188;28;20055;-76
2024/02/26 06:42:56;;;;;;;6.38;3.17;;;5.70;99.90;;;;;;4949907;28;20105;-76
2024/02/26 06:45:23;;;;;;;4.70;3.03;;;5.70;99.90;;;;;;4940599;28;20491;-76
2024/02/26 06:47:50;;;;;;;4.78;3.28;;;5.70;99.90;;;;;;4919353;29;20488;-76
2024/02/26 06:50:18;;;;;;;5.35;3.35;;;5.70;99.90;;;;;;4921237;29;20555;-75
2024/02/26 06:52:46;;;;;;;6.13;4.03;;;5.70;99.90;;;;;;4940241;29;20043;-76
2024/02/26 06:55:13;;;;;;;8.63;3.88;;;5.70;99.90;;;;;;4954013;29;20140;-76
2024/02/26 06:57:40;;;;;;;5.90;3.60;;;5.70;99.90;;;;;;4934689;28;20050;-76
2024/02/26 07:00:08;;;;;;;5.75;3.20;;;5.70;99.90;;;;;;4945023;28;20098;-76
2024/02/26 07:02:35;;;;;;;5.85;3.55;;;5.70;99.90;;;;;;4939322;28;20098;-76
2024/02/26 07:05:06;;;;;;;7.68;3.65;;;5.70;99.90;;;;;;4949084;28;20043;-76
2024/02/26 07:07:33;;;;;;;5.57;3.53;;;5.60;99.90;;;;;;4927939;29;20048;-76
2024/02/26 07:10:03;;;;;;;5.43;3.72;;;5.60;99.90;;;;;;4907800;28;20484;-77
2024/02/26 07:12:30;;;;;;;5.63;3.67;;;5.60;99.90;;;;;;4938001;28;20479;-76
2024/02/26 07:14:58;;;;;;;6.82;3.95;;;5.60;99.90;;;;;;4903758;29;20052;-76
2024/02/26 07:17:25;;;;;;;6.68;3.67;;;5.60;99.90;;;;;;4934331;28;20122;-76
2024/02/26 07:19:52;;;;;;;5.75;4.13;;;5.60;99.90;;;;;;4933978;29;20043;-76
2024/02/26 07:22:19;;;;;;;6.88;4.18;;;5.60;99.90;;;;;;4922004;29;20106;-77
2024/02/26 07:24:46;;;;;;;5.82;3.35;;;5.60;99.90;;;;;;4954664;29;20039;-76
2024/02/26 07:27:13;;;;;;;5.68;3.33;;;5.60;99.90;;;;;;4950200;29;20114;-76
2024/02/26 07:29:40;;;;;;;7.90;4.60;;;5.60;99.90;;;;;;4906581;29;20077;-76
2024/02/26 07:32:07;;;;;;;7.57;4.55;;;5.60;99.90;;;;;;4918815;29;20043;-76
2024/02/26 07:34:35;;;;;;;7.63;4.78;;;5.60;99.90;;;;;;4922744;29;20083;-76
2024/02/26 07:37:03;;;;;;;7.22;4.75;;;5.60;99.90;;;;;;4918945;29;20056;-76
2024/02/26 07:39:30;;;;;;;7.13;4.45;;;5.60;99.90;;;;;;4933469;29;20040;-76
2024/02/26 07:41:57;;;;;;;9.63;4.97;;;5.60;99.90;;;;;;4950626;29;20404;-76
2024/02/26 07:44:24;;;;;;;8.82;5.50;;;5.60;99.90;;;;;;4937360;29;20062;-76
2024/02/26 07:46:52;;;;;;;11.85;5.65;;;5.60;99.90;;;;;;4939717;29;20126;-77
2024/02/26 07:49:19;;;;;;;9.45;6.05;;;5.60;99.90;;;;;;4946991;29;20047;-76
2024/02/26 07:51:46;;;;;;;11.45;6.28;;;5.60;99.90;;;;;;4965634;28;20061;-76
2024/02/26 07:54:13;;;;;;;9.70;5.70;;;5.60;99.90;;;;;;4908545;29;20047;-76
2024/02/26 07:56:40;;;;;;;11.05;6.22;;;5.60;99.90;;;;;;4960141;28;20119;-76
2024/02/26 07:59:07;;;;;;;9.02;5.72;;;5.60;99.90;;;;;;4926703;29;20106;-76
2024/02/26 08:01:34;;;;;;;10.27;5.93;;;5.60;99.90;;;;;;4944647;28;20054;-76
2024/02/26 08:04:01;;;;;;;10.77;5.63;;;5.60;99.90;;;;;;4928385;29;20059;-76
2024/02/26 08:06:28;;;;;;;9.20;5.68;;;5.60;99.90;;;;;;4929922;28;20047;-76
2024/02/26 08:08:56;;;;;;;11.60;6.90;;;5.60;99.90;;;;;;4938572;28;20082;-76
2024/02/26 08:11:23;;;;;;;10.75;6.47;;;5.70;99.90;;;;;;4941634;29;20039;-76
2024/02/26 08:13:50;;;;;;;13.00;7.68;;;5.70;99.90;;;;;;4946227;28;21059;-76
2024/02/26 08:16:17;;;;;;;12.25;7.40;;;5.70;99.90;;;;;;4954025;28;20058;-76
2024/02/26 08:18:45;;;;;;;13.93;7.75;;;5.60;99.90;;;;;;4957149;28;20077;-76
2024/02/26 08:21:12;;;;;;;13.55;9.00;;;5.60;99.90;;;;;;4922692;29;20102;-76
2024/02/26 08:23:39;;;;;;;13.23;7.75;;;5.60;99.90;;;;;;4924226;28;20074;-76
2024/02/26 08:26:10;;;;;;;11.68;7.45;;;5.60;99.90;;;;;;4940590;28;20101;-76
2024/02/26 08:28:37;;;;;;;13.45;7.55;;;5.60;99.90;;;;;;4927297;29;20062;-77
2024/02/26 08:31:04;;;;;;;12.48;7.38;;;5.60;99.90;;;;;;4940464;28;20051;-76
2024/02/26 08:33:33;;;;;;;11.88;7.03;;;5.60;99.90;;;;;;4936859;28;20101;-75
2024/02/26 08:36:05;;;;;;;14.20;7.57;;;5.60;99.90;;;;;;4928928;28;20038;-75
2024/02/26 08:38:32;;;;;;;13.73;7.60;;;5.60;99.90;;;;;;4959663;28;20051;-76
2024/02/26 08:40:58;;;;;;;12.80;7.15;;;5.60;99.90;;;;;;4912715;28;20050;-75
2024/02/26 08:43:25;;;;;;;12.57;6.78;;;5.60;99.90;;;;;;4956441;28;20058;-76
2024/02/26 08:45:52;;;;;;;12.93;7.53;;;5.60;99.90;;;;;;4960998;28;20450;-82
2024/02/26 08:48:19;;;;;;;13.52;8.43;;;5.70;99.90;;;;;;4951057;28;20051;-82
2024/02/26 08:50:46;;;;;;;13.40;7.00;;;5.60;99.90;;;;;;4961521;28;20045;-82
2024/02/26 08:53:17;;;;;;;12.70;6.88;;;5.70;99.90;;;;;;4944186;28;20043;-82
2024/02/26 08:55:53;;;;;;;14.35;7.80;;;5.70;99.90;;;;;;4966950;28;20100;-75
2024/02/26 08:58:20;;;;;;;14.65;8.50;;;5.70;99.90;;;;;;4971541;28;20093;-76
2024/02/26 09:00:47;;;;;;;15.30;8.07;;;5.70;99.90;;;;;;4951305;28;20106;-76
2024/02/26 09:03:14;;;;;;;14.48;7.15;;;5.70;99.90;;;;;;4943582;28;20403;-76
2024/02/26 09:05:42;;;;;;;14.80;8.80;;;5.60;99.90;;;;;;4965049;28;20070;-75
2024/02/26 09:08:09;;;;;;;15.18;9.25;;;5.70;99.90;;;;;;4969770;28;20039;-77
2024/02/26 09:10:36;;;;;;;13.30;7.57;;;5.70;99.90;;;;;;4958833;28;20097;-77
2024/02/26 09:13:03;;;;;;;15.63;8.57;;;5.70;99.90;;;;;;4949838;28;20051;-76
2024/02/26 09:15:30;;;;;;;16.83;8.32;;;5.70;99.90;;;;;;4955654;28;20061;-76
2024/02/26 09:17:57;;;;;;;15.48;8.00;;;5.70;99.90;;;;;;4943954;28;20395;-76
2024/02/26 09:20:25;;;;;;;17.50;8.45;;;5.80;99.90;;;;;;4938587;28;20051;-76
2024/02/26 09:22:52;;;;;;;15.95;8.23;;;5.80;99.90;;;;;;4958398;28;20039;-75
2024/02/26 09:25:19;;;;;;;15.40;8.50;;;5.80;99.90;;;;;;4984404;28;20043;-76
2024/02/26 09:27:47;;;;;;;16.58;8.80;;;5.80;99.90;;;;;;4943969;28;20098;-76
2024/02/26 09:30:14;;;;;;;18.33;9.23;;;5.80;99.90;;;;;;4959202;28;20046;-76
2024/02/26 09:32:45;;;;;;;16.92;8.23;;;5.80;99.90;;;;;;4949615;28;20035;-77
2024/02/26 09:35:13;;;;;;;14.47;8.20;;;5.80;99.90;;;;;;4952040;28;20395;-75
2024/02/26 09:37:40;;;;;;;18.65;9.85;;;5.80;99.90;;;;;;4950663;28;20282;-75
2024/02/26 09:40:10;;;;;;;17.95;9.90;;;5.80;99.90;;;;;;4968596;28;20057;-76
2024/02/26 09:42:41;;;;;;;14.32;7.63;;;5.80;99.90;;;;;;4958371;28;20043;-76
2024/02/26 09:45:17;;;;;;;18.45;9.50;;;5.90;99.90;;;;;;4948955;28;20120;-75
2024/02/26 09:47:47;;;;;;;14.77;8.00;;;5.80;99.90;;;;;;4974641;28;20047;-76
2024/02/26 09:50:17;;;;;;;13.93;7.03;;;5.90;99.90;;;;;;4958773;28;20042;-76
2024/02/26 09:52:48;;;;;;;14.57;7.78;;;5.90;99.90;;;;;;4977030;28;20064;-80
2024/02/26 09:55:15;;;;;;;13.63;7.78;;;5.90;99.90;;;;;;4961182;28;20053;-75
2024/02/26 09:57:46;;;;;;;16.48;8.20;;;5.90;99.90;;;;;;4965456;28;20429;-75
2024/02/26 10:00:19;;;;;;;16.50;8.95;;;5.90;99.90;;;;;;4964352;28;20370;-76
2024/02/26 10:02:49;;;;;;;12.20;6.78;;;6.00;99.90;;;;;;4970969;28;20042;-75
2024/02/26 10:05:20;;;;;;;17.00;8.35;;;6.00;99.90;;;;;;4945292;28;20049;-76
2024/02/26 10:07:47;;;;;;;14.10;7.80;;;6.00;99.90;;;;;;4962610;28;20518;-76
2024/02/26 10:10:16;;;;;;;15.00;8.30;;;6.00;99.90;;;;;;4957884;28;20038;-76
2024/02/26 10:12:43;;;;;;;12.65;7.35;;;6.00;99.90;;;;;;4967162;28;20043;-76
2024/02/26 10:15:10;;;;;;;15.68;7.55;;;6.00;99.90;;;;;;4957543;28;20049;-76
2024/02/26 10:17:38;;;;;;;16.02;8.32;;;6.00;99.90;;;;;;4958983;28;20049;-76
2024/02/26 10:20:12;;;;;;;15.50;8.48;;;6.00;99.90;;;;;;4974495;28;20046;-76
2024/02/26 10:22:40;;;;;;;15.48;8.25;;;6.00;99.90;;;;;;4974551;28;20522;-75
2024/02/26 10:25:08;;;;;;;14.90;7.78;;;5.90;99.90;;;;;;4926264;28;20079;-76
2024/02/26 10:27:36;;;;;;;13.35;6.88;;;5.90;99.90;;;;;;4943453;28;20487;-76
2024/02/26 10:30:04;;;;;;;12.13;7.20;;;5.90;99.90;;;;;;4972217;28;20101;-76
2024/02/26 10:32:33;;;;;;;12.32;7.15;;;5.90;99.90;;;;;;4957510;28;20053;-76
2024/02/26 10:35:00;;;;;;;13.05;6.50;;;5.90;99.90;;;;;;4946850;28;20053;-76
2024/02/26 10:37:27;;;;;;;12.13;7.07;;;6.00;99.90;;;;;;4921910;28;20456;-76
2024/02/26 10:39:56;;;;;;;12.68;7.00;;;6.00;99.90;;;;;;4934824;28;20109;-75
2024/02/26 10:42:23;;;;;;;14.23;7.78;;;6.00;99.90;;;;;;4922758;29;20480;-76
2024/02/26 10:44:50;;;;;;;13.88;7.63;;;6.00;99.90;;;;;;4902677;28;20505;-75
2024/02/26 10:47:17;;;;;;;13.10;7.10;;;6.00;99.90;;;;;;4906735;28;20039;-76
2024/02/26 10:49:48;;;;;;;12.10;6.68;;;6.00;99.90;;;;;;4922215;28;20039;-75
2024/02/26 10:52:15;;;;;;;10.85;5.78;;;6.10;99.90;;;;;;4941974;28;20397;-81
2024/02/26 10:54:47;;;;;;;12.85;7.32;;;6.10;99.90;;;;;;4931926;28;20110;-75
2024/02/26 10:57:18;;;;;;;12.60;6.68;;;6.10;99.90;;;;;;4931849;28;20054;-75
2024/02/26 10:59:45;;;;;;;10.48;6.55;;;6.10;99.90;;;;;;4931834;29;20040;-78
2024/02/26 11:02:14;;;;;;;13.43;7.18;;;6.20;99.90;;;;;;4922256;29;20043;-81
2024/02/26 11:04:41;;;;;;;12.75;7.25;;;6.20;99.90;;;;;;4920111;28;20047;-80
2024/02/26 11:07:10;;;;;;;11.85;6.97;;;6.10;99.90;;;;;;4934487;28;20574;-78
2024/02/26 11:09:43;;;;;;;14.88;8.40;;;6.10;99.90;;;;;;4922196;29;20082;-78
2024/02/26 11:12:14;;;;;;;13.60;8.50;;;6.10;99.90;;;;;;4937846;29;20050;-79
2024/02/26 11:14:44;;;;;;;13.18;8.00;;;6.10;99.90;;;;;;4909437;29;20043;-79
2024/02/26 11:17:12;;;;;;;11.07;6.90;;;6.10;99.90;;;;;;4940064;29;20065;-78
2024/02/26 11:19:42;;;;;;;12.95;7.43;;;6.10;99.90;;;;;;4924119;29;20065;-78
2024/02/26 11:22:10;;;;;;;11.57;6.38;;;6.10;99.90;;;;;;4937142;28;20043;-79
2024/02/26 11:24:50;;;;;;;11.23;6.55;;;6.10;99.90;;;;;;4904125;29;20047;-80
2024/02/26 11:27:19;;;;;;;13.85;7.45;;;6.10;99.90;;;;;;4932487;29;20057;-80
2024/02/26 11:29:52;;;;;;;14.00;8.15;;;6.10;99.90;;;;;;4925716;28;20105;-80
2024/02/26 11:32:20;;;;;;;13.00;7.05;;;6.10;99.90;;;;;;4949839;29;20126;-79
2024/02/26 11:34:48;;;;;;;14.50;7.90;;;6.10;99.90;;;;;;4967006;28;20054;-80
2024/02/26 11:37:17;;;;;;;12.88;7.60;;;6.10;99.90;;;;;;4920547;28;20057;-79
2024/02/26 11:39:45;;;;;;;11.70;6.95;;;6.10;99.90;;;;;;4948278;28;20047;-76
2024/02/26 11:42:16;;;;;;;12.65;7.18;;;6.10;99.90;;;;;;4957190;28;20403;-76
2024/02/26 11:44:43;;;;;;;11.07;6.80;;;6.20;99.90;;;;;;4950174;28;20046;-79
2024/02/26 11:47:21;;;;;;;11.88;6.78;;;6.20;99.90;;;;;;4951540;28;20062;-79
2024/02/26 11:49:49;;;;;;;9.77;5.68;;;6.20;99.90;;;;;;4957727;28;20499;-79
2024/02/26 11:52:16;;;;;;;13.07;6.55;;;6.20;99.90;;;;;;4944447;28;20063;-81
2024/02/26 11:54:54;;;;;;;10.95;6.20;;;6.30;99.90;;;;;;4948315;29;20050;-79
2024/02/26 11:57:29;;;;;;;12.23;6.97;;;6.20;99.90;;;;;;4960674;28;20050;-80
2024/02/26 12:00:12;;;;;;;13.57;7.05;;;6.20;99.90;;;;;;4962975;28;20049;-80
2024/02/26 12:02:47;;;;;;;12.20;5.80;;;6.30;99.90;;;;;;4972186;28;20043;-80
2024/02/26 12:05:20;;;;;;;9.27;4.70;;;6.30;99.90;;;;;;4954039;28;20042;-79
2024/02/26 12:07:50;;;;;;;9.18;5.03;;;6.30;99.90;;;;;;4960670;28;20097;-79
2024/02/26 12:10:28;;;;;;;8.88;5.50;;;6.30;99.90;;;;;;4922780;28;20106;-79
2024/02/26 12:13:01;;;;;;;9.73;5.13;;;6.30;99.90;;;;;;4974036;28;20474;-80
2024/02/26 12:15:37;;;;;;;9.50;5.43;;;6.30;99.90;;;;;;4955702;28;20549;-80
2024/02/26 12:18:07;;;;;;;11.93;5.70;;;6.30;99.90;;;;;;4916291;28;20451;-80
2024/02/26 12:20:35;;;;;;;11.43;5.75;;;6.30;99.90;;;;;;4966891;28;20050;-80
2024/02/26 12:23:05;;;;;;;9.70;5.57;;;6.30;99.90;;;;;;4929813;28;20085;-80
2024/02/26 12:25:33;;;;;;;9.85;4.97;;;6.30;99.90;;;;;;4959867;28;20058;-80
2024/02/26 12:28:00;;;;;;;8.23;5.00;;;6.30;99.90;;;;;;4943729;28;20055;-77
2024/02/26 12:30:30;;;;;;;10.23;5.82;;;6.30;99.90;;;;;;4966427;28;20058;-80
2024/02/26 12:33:01;;;;;;;9.48;5.50;;;6.30;99.90;;;;;;4960382;28;20038;-76
2024/02/26 12:35:31;;;;;;;10.15;5.15;;;6.30;99.90;;;;;;4965891;28;20626;-76
2024/02/26 12:37:58;;;;;;;8.57;4.68;;;6.30;99.90;;;;;;4974811;28;20042;-76
2024/02/26 12:40:26;;;;;;;10.52;4.95;;;6.40;99.90;;;;;;4952665;28;20043;-76
2024/02/26 12:42:55;;;;;;;10.70;6.30;;;6.40;99.90;;;;;;4968426;28;20054;-76
2024/02/26 12:45:22;;;;;;;7.80;4.25;;;6.40;99.90;;;;;;4958942;28;20137;-76
2024/02/26 12:47:52;;;;;;;7.85;4.43;;;6.40;99.90;;;;;;4917661;28;20475;-76
2024/02/26 12:50:19;;;;;;;9.40;5.28;;;6.40;99.90;;;;;;4926949;28;20050;-76
2024/02/26 12:52:47;;;;;;;9.82;5.07;;;6.40;99.90;;;;;;4938250;28;20038;-76
2024/02/26 12:55:18;;;;;;;8.70;4.63;;;6.50;99.90;;;;;;4967764;28;20113;-76
2024/02/26 12:57:46;;;;;;;7.95;4.38;;;6.50;99.90;;;;;;4967545;28;20130;-76